Time;durP1;ratioP1;P1;durP2;ratioP2;P2;SDS_P1;SDS_P2;PMS_P1;PMS_P2;Temp;Humidity;BMP_temperature;BMP_pressure;BME280_temperature;BME280_humidity;BME280_pressure;Samples;Min_cycle;Max_cycle;Signal;HPM_P1;HPM_P2
2023/10/24 00:00:23;;;;;;;;;;;15.20;89.10;;;;;;4145521;28;19932;-48
2023/10/24 00:03:04;;;;;;;;;;;15.20;89.20;;;;;;4154239;28;20063;-49
2023/10/24 00:05:47;;;;;;;;;;;15.10;89.10;;;;;;4154425;28;20014;-47
2023/10/24 00:08:29;;;;;;;;;;;15.20;89.60;;;;;;4154196;28;20381;-48
2023/10/24 00:11:09;;;;;;;;;;;15.20;89.60;;;;;;4154479;28;20038;-50
2023/10/24 00:13:50;;;;;;;;;;;15.10;89.60;;;;;;4154437;28;20376;-48
2023/10/24 00:16:31;;;;;;;;;;;15.10;90.00;;;;;;4138474;28;19964;-48
2023/10/24 00:19:11;;;;;;;;;;;15.10;89.50;;;;;;4145626;28;19932;-47
2023/10/24 00:21:53;;;;;;;;;;;15.20;90.00;;;;;;4139277;28;20038;-49
2023/10/24 00:24:34;;;;;;;;;;;15.10;90.00;;;;;;4152444;28;19997;-48
2023/10/24 00:27:15;;;;;;;;;;;15.10;90.00;;;;;;4150718;28;19936;-47
2023/10/24 00:29:56;;;;;;;;;;;15.10;90.10;;;;;;4137590;28;19936;-52
2023/10/24 00:32:37;;;;;;;;;;;15.10;90.30;;;;;;4137289;28;19932;-50
2023/10/24 00:35:18;;;;;;;;;;;15.10;90.10;;;;;;4121887;28;19933;-48
2023/10/24 00:38:00;;;;;;;;;;;15.10;90.10;;;;;;4123909;28;19944;-50
2023/10/24 00:40:41;;;;;;;;;;;15.10;90.20;;;;;;4138338;28;20079;-51
2023/10/24 00:43:22;;;;;;;;;;;15.10;90.30;;;;;;4137139;28;19944;-51
2023/10/24 00:46:02;;;;;;;;;;;15.10;90.20;;;;;;4127246;28;19989;-47
2023/10/24 00:48:44;;;;;;;;;;;15.10;90.30;;;;;;4136829;28;19936;-48
2023/10/24 00:51:26;;;;;;;;;;;15.10;90.30;;;;;;4146843;28;20039;-47
2023/10/24 00:54:09;;;;;;;;;;;15.10;90.40;;;;;;4137152;28;19932;-46
2023/10/24 00:56:51;;;;;;;;;;;15.10;90.50;;;;;;4128368;28;20015;-46
2023/10/24 00:59:32;;;;;;;;;;;15.10;90.50;;;;;;4134718;28;19933;-48
2023/10/24 01:02:13;;;;;;;;;;;15.10;90.50;;;;;;4136967;28;20329;-48
2023/10/24 01:04:55;;;;;;;;;;;15.10;90.60;;;;;;4140029;28;19980;-50
2023/10/24 01:07:35;;;;;;;;;;;15.10;90.50;;;;;;4138641;28;19937;-49
2023/10/24 01:10:18;;;;;;;;;;;15.10;90.40;;;;;;4140577;28;20294;-51
2023/10/24 01:12:59;;;;;;;;;;;15.10;90.50;;;;;;4124607;28;19933;-47
2023/10/24 01:15:39;;;;;;;;;;;15.10;90.50;;;;;;4123637;28;19937;-47
2023/10/24 01:18:20;;;;;;;;;;;15.10;90.60;;;;;;4124021;28;19936;-47
2023/10/24 01:21:01;;;;;;;;;;;15.10;90.60;;;;;;4120307;28;20455;-48
2023/10/24 01:23:43;;;;;;;;;;;15.10;91.00;;;;;;4112581;28;20239;-48
2023/10/24 01:26:25;;;;;;;;;;;15.10;90.70;;;;;;4133205;28;19933;-47
2023/10/24 01:29:06;;;;;;;;;;;15.10;90.70;;;;;;4138275;28;20027;-49
2023/10/24 01:31:47;;;;;;;;;;;15.10;90.70;;;;;;4138505;28;19937;-48
2023/10/24 01:34:28;;;;;;;;;;;15.10;90.80;;;;;;4138282;28;19932;-48
2023/10/24 01:37:09;;;;;;;;;;;15.10;90.90;;;;;;4141311;28;19937;-50
2023/10/24 01:39:52;;;;;;;;;;;15.10;91.20;;;;;;4155210;28;20389;-52
2023/10/24 01:42:33;;;;;;;;;;;15.10;90.90;;;;;;4155868;28;19952;-52
2023/10/24 01:45:15;;;;;;;;;;;15.10;90.90;;;;;;4155350;28;19932;-49
2023/10/24 01:47:56;;;;;;;;;;;15.10;91.30;;;;;;4156059;28;19936;-51
2023/10/24 01:50:37;;;;;;;;;;;15.10;90.90;;;;;;4141895;28;19933;-49
2023/10/24 01:53:17;;;;;;;;;;;15.10;90.90;;;;;;4137645;28;19932;-47
2023/10/24 01:56:00;;;;;;;;;;;15.10;91.00;;;;;;4141544;28;19963;-52
2023/10/24 01:58:41;;;;;;;;;;;15.10;91.00;;;;;;4150776;28;19994;-48
2023/10/24 02:01:22;;;;;;;;;;;15.10;91.00;;;;;;4138961;28;20027;-48
2023/10/24 02:04:03;;;;;;;;;;;15.10;91.00;;;;;;4154471;28;20131;-49
2023/10/24 02:06:44;;;;;;;;;;;15.10;91.00;;;;;;4155060;28;19936;-50
2023/10/24 02:09:25;;;;;;;;;;;15.10;91.00;;;;;;4154891;28;19932;-48
2023/10/24 02:12:07;;;;;;;;;;;15.10;91.00;;;;;;4153850;28;19935;-46
2023/10/24 02:14:49;;;;;;;;;;;15.10;91.30;;;;;;4138764;28;19952;-47
2023/10/24 02:17:30;;;;;;;;;;;15.10;91.10;;;;;;4138730;28;20107;-48
2023/10/24 02:20:11;;;;;;;;;;;15.10;91.10;;;;;;4138642;28;19932;-48
2023/10/24 02:22:56;;;;;;;;;;;15.10;91.10;;;;;;4152886;28;19932;-47
2023/10/24 02:25:37;;;;;;;;;;;15.10;91.10;;;;;;4156105;28;19936;-47
2023/10/24 02:28:19;;;;;;;;;;;15.10;91.20;;;;;;4156013;28;20493;-49
2023/10/24 02:31:02;;;;;;;;;;;15.10;91.20;;;;;;4139371;28;19937;-48
2023/10/24 02:33:43;;;;;;;;;;;15.10;91.30;;;;;;4143398;28;19975;-49
2023/10/24 02:36:24;;;;;;;;;;;15.10;91.30;;;;;;4129731;28;20515;-48
2023/10/24 02:39:04;;;;;;;;;;;15.10;91.40;;;;;;4154728;28;19936;-48
2023/10/24 02:41:45;;;;;;;;;;;15.10;91.40;;;;;;4155139;28;19960;-50
2023/10/24 02:44:28;;;;;;;;;;;15.10;91.40;;;;;;4153664;28;19932;-48
2023/10/24 02:47:09;;;;;;;;;;;15.10;91.40;;;;;;4152920;28;19936;-49
2023/10/24 02:49:50;;;;;;;;;;;15.10;91.40;;;;;;4155337;28;20023;-49
2023/10/24 02:52:30;;;;;;;;;;;15.10;91.40;;;;;;4153782;28;20044;-48
2023/10/24 02:55:11;;;;;;;;;;;15.10;91.40;;;;;;4154382;28;19965;-49
2023/10/24 02:57:52;;;;;;;;;;;15.10;91.40;;;;;;4154960;28;19932;-49
2023/10/24 03:00:34;;;;;;;;;;;15.10;91.50;;;;;;4153390;28;20017;-50
2023/10/24 03:03:15;;;;;;;;;;;15.10;91.50;;;;;;4154874;28;20477;-48
2023/10/24 03:05:56;;;;;;;;;;;15.10;91.60;;;;;;4155204;28;19932;-50
2023/10/24 03:08:36;;;;;;;;;;;15.10;91.50;;;;;;4155456;28;19936;-49
2023/10/24 03:11:22;;;;;;;;;;;15.10;91.60;;;;;;4155070;28;19936;-49
2023/10/24 03:14:02;;;;;;;;;;;15.10;91.60;;;;;;4152842;28;20380;-49
2023/10/24 03:16:44;;;;;;;;;;;15.10;91.60;;;;;;4154942;28;20388;-49
2023/10/24 03:19:27;;;;;;;;;;;15.00;91.60;;;;;;4154505;28;19948;-49
2023/10/24 03:22:08;;;;;;;;;;;15.10;91.60;;;;;;4155081;28;19936;-47
2023/10/24 03:24:50;;;;;;;;;;;15.10;91.60;;;;;;4154887;28;19936;-49
2023/10/24 03:27:30;;;;;;;;;;;15.10;91.60;;;;;;4154597;28;19937;-50
2023/10/24 03:30:11;;;;;;;;;;;15.10;91.70;;;;;;4138676;28;19933;-46
2023/10/24 03:32:53;;;;;;;;;;;15.10;92.10;;;;;;4138737;28;20063;-47
2023/10/24 03:35:35;;;;;;;;;;;15.10;91.70;;;;;;4142922;28;19940;-47
2023/10/24 03:38:16;;;;;;;;;;;15.00;91.70;;;;;;4152504;28;19933;-47
2023/10/24 03:40:57;;;;;;;;;;;15.10;91.70;;;;;;4154854;28;20369;-48
2023/10/24 03:43:39;;;;;;;;;;;15.00;91.70;;;;;;4154635;28;19936;-47
2023/10/24 03:46:19;;;;;;;;;;;15.10;91.70;;;;;;4154743;28;19932;-46
2023/10/24 03:49:02;;;;;;;;;;;15.00;91.70;;;;;;4154480;28;19936;-46
2023/10/24 03:51:43;;;;;;;;;;;15.10;91.80;;;;;;4154916;28;20401;-49
2023/10/24 03:54:23;;;;;;;;;;;15.00;91.80;;;;;;4154218;28;20443;-47
2023/10/24 03:57:04;;;;;;;;;;;15.00;91.80;;;;;;4154723;28;19976;-47
2023/10/24 03:59:45;;;;;;;;;;;15.00;91.80;;;;;;4154836;28;19932;-47
2023/10/24 04:02:26;;;;;;;;;;;15.10;91.80;;;;;;4154719;28;19936;-48
2023/10/24 04:05:09;;;;;;;;;;;15.00;91.80;;;;;;4154413;28;19932;-48
2023/10/24 04:07:50;;;;;;;;;;;15.10;91.90;;;;;;4154261;28;19932;-46
2023/10/24 04:10:33;;;;;;;;;;;15.10;91.90;;;;;;4138648;28;19932;-49
2023/10/24 04:13:14;;;;;;;;;;;15.00;92.30;;;;;;4151531;28;20416;-48
2023/10/24 04:15:57;;;;;;;;;;;15.00;91.90;;;;;;4137981;28;19933;-48
2023/10/24 04:18:38;;;;;;;;;;;15.00;91.90;;;;;;4150184;28;19974;-47
2023/10/24 04:21:20;;;;;;;;;;;15.00;91.90;;;;;;4154334;28;19948;-47
2023/10/24 04:24:03;;;;;;;;;;;15.00;91.90;;;;;;4152489;28;19936;-48
2023/10/24 04:26:44;;;;;;;;;;;15.00;91.90;;;;;;4122648;28;20403;-49
2023/10/24 04:29:25;;;;;;;;;;;15.00;92.00;;;;;;4141141;28;20010;-51
2023/10/24 04:32:05;;;;;;;;;;;15.00;92.00;;;;;;4138239;28;19933;-52
2023/10/24 04:34:49;;;;;;;;;;;15.00;92.00;;;;;;4152394;28;20010;-49
2023/10/24 04:37:31;;;;;;;;;;;15.00;92.10;;;;;;4164478;28;19932;-53
2023/10/24 04:40:12;;;;;;;;;;;15.00;92.10;;;;;;4156654;28;20388;-53
2023/10/24 04:42:53;;;;;;;;;;;15.00;92.50;;;;;;4156587;28;19932;-50
2023/10/24 04:45:34;;;;;;;;;;;15.00;92.10;;;;;;4156982;28;20055;-49
2023/10/24 04:48:14;;;;;;;;;;;15.00;92.20;;;;;;4154085;28;20000;-49
2023/10/24 04:50:55;;;;;;;;;;;15.10;92.20;;;;;;4157321;28;19932;-50
2023/10/24 04:53:37;;;;;;;;;;;15.00;92.20;;;;;;4156658;28;19931;-49
2023/10/24 04:56:18;;;;;;;;;;;15.10;92.20;;;;;;4143765;28;19932;-48
2023/10/24 04:58:59;;;;;;;;;;;15.00;92.20;;;;;;4136602;28;20270;-48
2023/10/24 05:01:40;;;;;;;;;;;15.00;92.70;;;;;;4139086;28;20452;-49
2023/10/24 05:04:21;;;;;;;;;;;15.00;92.30;;;;;;4140604;28;19937;-49
2023/10/24 05:07:01;;;;;;;;;;;15.00;92.30;;;;;;4140231;28;20007;-50
2023/10/24 05:09:44;;;;;;;;;;;15.00;92.80;;;;;;4155777;28;20060;-48
2023/10/24 05:12:24;;;;;;;;;;;15.00;92.40;;;;;;4156331;28;19992;-48
2023/10/24 05:15:06;;;;;;;;;;;15.00;92.40;;;;;;4154281;28;20595;-49
2023/10/24 05:17:47;;;;;;;;;;;15.00;92.40;;;;;;4157012;28;19936;-49
2023/10/24 05:20:28;;;;;;;;;;;15.00;92.40;;;;;;4156320;28;19952;-47
2023/10/24 05:23:08;;;;;;;;;;;15.00;92.40;;;;;;4137548;28;19933;-49
2023/10/24 05:25:51;;;;;;;;;;;15.00;92.40;;;;;;4121930;28;20290;-50
2023/10/24 05:28:34;;;;;;;;;;;15.00;92.80;;;;;;4137925;28;19937;-51
2023/10/24 05:31:14;;;;;;;;;;;15.00;92.40;;;;;;4140067;28;20052;-46
2023/10/24 05:33:55;;;;;;;;;;;15.00;92.40;;;;;;4151930;28;19983;-48
2023/10/24 05:36:36;;;;;;;;;;;15.00;92.40;;;;;;4141188;28;20030;-51
2023/10/24 05:39:16;;;;;;;;;;;15.00;92.50;;;;;;4140008;28;20314;-52
2023/10/24 05:41:58;;;;;;;;;;;15.10;92.60;;;;;;4156110;28;19932;-55
2023/10/24 05:44:39;;;;;;;;;;;15.10;93.00;;;;;;4142526;28;20381;-54
2023/10/24 05:47:20;;;;;;;;;;;15.10;92.60;;;;;;4149906;28;19931;-54
2023/10/24 05:50:00;;;;;;;;;;;15.10;92.60;;;;;;4155471;28;19982;-54
2023/10/24 05:52:41;;;;;;;;;;;15.10;92.60;;;;;;4166683;28;20055;-52
2023/10/24 05:55:22;;;;;;;;;;;15.10;92.60;;;;;;4141252;28;19933;-54
2023/10/24 05:58:04;;;;;;;;;;;15.10;92.60;;;;;;4139697;28;19932;-51
2023/10/24 06:00:45;;;;;;;;;;;15.10;92.60;;;;;;4149609;28;19935;-50
2023/10/24 06:03:26;;;;;;;;;;;15.00;92.60;;;;;;4135745;28;19933;-50
2023/10/24 06:06:07;;;;;;;;;;;15.10;92.70;;;;;;4142075;28;20039;-54
2023/10/24 06:08:48;;;;;;;;;;;15.10;93.10;;;;;;4155658;28;20496;-49
2023/10/24 06:11:29;;;;;;;;;;;15.00;92.80;;;;;;4156132;28;20026;-48
2023/10/24 06:14:11;;;;;;;;;;;15.10;92.80;;;;;;4131180;28;19937;-52
2023/10/24 06:16:52;;;;;;;;;;;15.10;92.80;;;;;;4139732;28;19931;-52
2023/10/24 06:19:39;;;;;;;;;;;15.10;92.80;;;;;;4151509;28;19948;-49
2023/10/24 06:22:21;;;;;;;;;;;15.10;92.80;;;;;;4156077;28;20385;-48
2023/10/24 06:25:01;;;;;;;;;;;15.10;92.90;;;;;;4155816;28;19936;-49
2023/10/24 06:27:42;;;;;;;;;;;15.10;92.90;;;;;;4155378;28;20005;-50
2023/10/24 06:30:24;;;;;;;;;;;15.10;92.90;;;;;;4137854;28;19932;-49
2023/10/24 06:33:05;;;;;;;;;;;15.10;93.30;;;;;;4136547;28;20437;-49
2023/10/24 06:35:46;;;;;;;;;;;15.10;92.90;;;;;;4124052;28;19949;-53
2023/10/24 06:38:27;;;;;;;;;;;15.10;92.90;;;;;;4141592;28;19983;-50
2023/10/24 06:41:09;;;;;;;;;;;15.00;92.90;;;;;;4140050;28;19936;-49
2023/10/24 06:43:50;;;;;;;;;;;15.10;92.90;;;;;;4153056;28;20401;-53
2023/10/24 06:46:33;;;;;;;;;;;15.00;92.90;;;;;;4140333;28;20393;-53
2023/10/24 06:49:14;;;;;;;;;;;15.00;92.90;;;;;;4154608;28;19952;-51
2023/10/24 06:51:55;;;;;;;;;;;15.10;92.90;;;;;;4146566;28;19932;-49
2023/10/24 06:54:36;;;;;;;;;;;15.00;92.90;;;;;;4154475;28;20059;-51
2023/10/24 06:57:17;;;;;;;;;;;15.00;93.30;;;;;;4156960;28;19936;-48
2023/10/24 06:59:57;;;;;;;;;;;15.00;92.90;;;;;;4122795;28;19953;-51
2023/10/24 07:02:39;;;;;;;;;;;15.00;92.90;;;;;;4123452;28;20023;-49
2023/10/24 07:05:20;;;;;;;;;;;15.00;92.90;;;;;;4122551;28;19932;-47
2023/10/24 07:08:01;;;;;;;;;;;15.00;92.90;;;;;;4124459;28;19956;-53
2023/10/24 07:10:42;;;;;;;;;;;15.00;93.00;;;;;;4139260;28;19952;-48
2023/10/24 07:13:22;;;;;;;;;;;15.10;93.10;;;;;;4147159;28;19994;-49
2023/10/24 07:16:10;;;;;;;;;;;15.00;93.00;;;;;;4154987;28;20022;-50
2023/10/24 07:18:53;;;;;;;;;;;15.00;93.00;;;;;;4137543;28;20345;-50
2023/10/24 07:21:34;;;;;;;;;;;15.00;93.00;;;;;;4137488;28;19937;-49
2023/10/24 07:24:14;;;;;;;;;;;15.00;93.00;;;;;;4135912;28;19950;-50
2023/10/24 07:26:55;;;;;;;;;;;15.00;93.40;;;;;;4144277;28;19936;-53
2023/10/24 07:29:36;;;;;;;;;;;15.00;93.00;;;;;;4154503;28;19936;-49
2023/10/24 07:32:16;;;;;;;;;;;15.00;93.00;;;;;;4154833;28;19932;-49
2023/10/24 07:34:59;;;;;;;;;;;15.00;93.00;;;;;;4153086;28;20014;-50
2023/10/24 07:37:40;;;;;;;;;;;15.00;92.90;;;;;;4153547;28;19936;-49
2023/10/24 07:40:20;;;;;;;;;;;15.00;92.90;;;;;;4150529;28;19932;-51
2023/10/24 07:43:01;;;;;;;;;;;15.10;92.90;;;;;;4138542;28;20020;-49
2023/10/24 07:45:42;;;;;;;;;;;15.00;93.20;;;;;;4148439;28;19932;-52
2023/10/24 07:48:24;;;;;;;;;;;15.00;92.80;;;;;;4138590;28;20016;-52
2023/10/24 07:51:07;;;;;;;;;;;15.00;92.80;;;;;;4137678;28;20002;-48
2023/10/24 07:53:48;;;;;;;;;;;15.00;92.80;;;;;;4137392;28;19936;-53
2023/10/24 07:56:29;;;;;;;;;;;15.00;92.80;;;;;;4146973;28;19979;-50
2023/10/24 07:59:10;;;;;;;;;;;15.00;92.80;;;;;;4152617;28;20392;-50
2023/10/24 08:01:51;;;;;;;;;;;15.10;93.40;;;;;;4154018;28;19939;-52
2023/10/24 08:04:32;;;;;;;;;;;15.10;93.10;;;;;;4140671;28;19990;-50
2023/10/24 08:07:14;;;;;;;;;;;15.30;93.00;;;;;;4153601;28;19932;-49
2023/10/24 08:09:55;;;;;;;;;;;15.50;92.70;;;;;;4154323;28;20370;-48
2023/10/24 08:12:36;;;;;;;;;;;15.70;92.40;;;;;;4138507;28;19932;-51
2023/10/24 08:15:16;;;;;;;;;;;15.80;92.00;;;;;;4158035;28;19994;-50
2023/10/24 08:17:57;;;;;;;;;;;16.00;91.70;;;;;;4140639;28;20068;-48
2023/10/24 08:20:38;;;;;;;;;;;16.20;91.30;;;;;;4126474;28;19937;-47
2023/10/24 08:23:20;;;;;;;;;;;16.30;91.00;;;;;;4139482;28;19944;-47
2023/10/24 08:26:03;;;;;;;;;;;16.50;90.70;;;;;;4157377;28;19947;-47
2023/10/24 08:28:43;;;;;;;;;;;16.60;90.40;;;;;;4155852;28;19968;-47
2023/10/24 08:31:24;;;;;;;;;;;16.80;90.10;;;;;;4157187;28;19932;-47
2023/10/24 08:34:05;;;;;;;;;;;16.90;89.60;;;;;;4157337;28;19932;-47
2023/10/24 08:36:46;;;;;;;;;;;17.00;89.00;;;;;;4141453;28;19975;-47
2023/10/24 08:39:28;;;;;;;;;;;17.10;88.70;;;;;;4141021;28;19936;-47
2023/10/24 08:42:10;;;;;;;;;;;17.10;88.20;;;;;;4146203;28;20456;-47
2023/10/24 08:44:52;;;;;;;;;;;17.20;88.00;;;;;;4144094;28;20020;-48
2023/10/24 08:47:33;;;;;;;;;;;17.20;87.80;;;;;;4154719;28;19931;-47
2023/10/24 08:50:14;;;;;;;;;;;17.10;87.80;;;;;;4155394;28;19955;-49
2023/10/24 08:52:54;;;;;;;;;;;17.10;87.80;;;;;;4156098;28;19936;-47
2023/10/24 08:55:37;;;;;;;;;;;17.10;87.60;;;;;;4155774;28;20030;-47
2023/10/24 08:58:18;;;;;;;;;;;17.10;87.70;;;;;;4157149;28;19936;-47
2023/10/24 09:01:02;;;;;;;;;;;17.00;87.80;;;;;;4142472;28;19931;-48
2023/10/24 09:03:43;;;;;;;;;;;17.00;88.00;;;;;;4129569;28;19936;-48
2023/10/24 09:06:24;;;;;;;;;;;17.00;89.00;;;;;;4146801;28;19935;-48
2023/10/24 09:09:05;;;;;;;;;;;16.90;88.20;;;;;;4156460;28;19936;-47
2023/10/24 09:11:55;;;;;;;;;;;16.90;88.30;;;;;;4157134;28;20282;-49
2023/10/24 09:14:39;;;;;;;;;;;16.90;88.60;;;;;;4156274;28;19936;-50
2023/10/24 09:17:32;;;;;;;;;;;16.90;88.60;;;;;;4155167;28;20059;-52
2023/10/24 09:20:13;;;;;;;;;;;16.90;88.30;;;;;;4156572;28;20180;-51
2023/10/24 09:22:54;;;;;;;;;;;16.90;88.20;;;;;;4156094;28;19932;-54
2023/10/24 09:25:34;;;;;;;;;;;16.90;88.20;;;;;;4156543;28;19984;-50
2023/10/24 09:28:17;;;;;;;;;;;16.90;88.20;;;;;;4154530;28;19936;-53
2023/10/24 09:30:58;;;;;;;;;;;17.00;88.10;;;;;;4156713;28;19992;-50
2023/10/24 09:33:40;;;;;;;;;;;17.00;87.80;;;;;;4140369;28;20303;-50
2023/10/24 09:36:24;;;;;;;;;;;17.00;87.90;;;;;;4148049;28;19963;-50
2023/10/24 09:39:05;;;;;;;;;;;17.00;87.80;;;;;;4156440;28;20046;-54
2023/10/24 09:41:47;;;;;;;;;;;17.10;87.90;;;;;;4156551;28;19933;-54
2023/10/24 09:44:30;;;;;;;;;;;17.10;87.50;;;;;;4143166;28;20301;-51
2023/10/24 09:47:10;;;;;;;;;;;17.10;87.60;;;;;;4154952;28;20369;-54
2023/10/24 09:49:52;;;;;;;;;;;17.20;87.40;;;;;;4139707;28;20458;-53
2023/10/24 09:52:33;;;;;;;;;;;17.20;87.50;;;;;;4123639;28;19949;-52
2023/10/24 09:55:15;;;;;;;;;;;17.20;87.40;;;;;;4126276;28;19944;-51
2023/10/24 09:57:56;;;;;;;;;;;17.10;87.60;;;;;;4154744;28;19932;-49
2023/10/24 10:00:39;;;;;;;;;;;17.10;87.80;;;;;;4156535;28;19932;-50
2023/10/24 10:03:20;;;;;;;;;;;17.10;87.90;;;;;;4155807;28;19932;-51
2023/10/24 10:06:03;;;;;;;;;;;17.20;88.10;;;;;;4156116;28;19933;-50
2023/10/24 10:08:45;;;;;;;;;;;17.10;88.20;;;;;;4146199;28;19944;-49
2023/10/24 10:11:27;;;;;;;;;;;17.10;88.20;;;;;;4156050;28;20012;-49
2023/10/24 10:14:10;;;;;;;;;;;17.10;89.30;;;;;;4149006;28;19958;-49
2023/10/24 10:16:55;;;;;;;;;;;17.00;88.70;;;;;;4155793;28;20701;-49
2023/10/24 10:19:51;;;;;;;;;;;17.00;88.90;;;;;;4155580;28;20570;-51
2023/10/24 10:22:38;;;;;;;;;;;17.00;89.00;;;;;;4152193;28;20024;-50
2023/10/24 10:25:29;;;;;;;;;;;17.00;88.80;;;;;;4155661;28;20389;-51
2023/10/24 10:28:16;;;;;;;;;;;17.00;88.70;;;;;;4152357;28;20328;-49
2023/10/24 10:31:00;;;;;;;;;;;17.00;88.70;;;;;;4155462;28;19936;-49
2023/10/24 10:34:03;;;;;;;;;;;17.00;88.70;;;;;;4137476;28;20293;-50
2023/10/24 10:36:53;;;;;;;;;;;17.00;88.50;;;;;;4155253;28;19987;-51
2023/10/24 10:39:33;;;;;;;;;;;17.10;88.00;;;;;;4155524;28;20286;-50
2023/10/24 10:42:28;;;;;;;;;;;17.20;87.60;;;;;;4139319;28;20012;-50
2023/10/24 10:45:23;;;;;;;;;;;17.20;87.20;;;;;;4154508;28;19932;-49
2023/10/24 10:48:04;;;;;;;;;;;17.20;87.10;;;;;;4139753;28;19979;-48
2023/10/24 10:50:50;;;;;;;;;;;17.20;87.10;;;;;;4137476;28;19936;-51
2023/10/24 10:53:35;;;;;;;;;;;17.10;87.10;;;;;;4155489;28;20476;-51
2023/10/24 10:56:19;;;;;;;;;;;17.10;87.30;;;;;;4155764;28;19932;-49
2023/10/24 10:59:15;;;;;;;;;;;17.00;87.30;;;;;;4155585;28;19951;-50
2023/10/24 11:02:01;;;;;;;;;;;17.00;87.60;;;;;;4153250;28;19967;-50
2023/10/24 11:04:42;;;;;;;;;;;16.90;87.70;;;;;;4141997;28;19975;-47
2023/10/24 11:07:37;;;;;;;;;;;16.90;87.80;;;;;;4138698;28;19936;-46
2023/10/24 11:10:20;;;;;;;;;;;16.80;87.90;;;;;;4138021;28;20018;-47
2023/10/24 11:13:01;;;;;;;;;;;16.80;89.00;;;;;;4137702;28;19933;-50
2023/10/24 11:15:42;;;;;;;;;;;16.80;88.40;;;;;;4154028;28;20395;-50
2023/10/24 11:18:23;;;;;;;;;;;16.80;88.50;;;;;;4153055;28;20372;-50
2023/10/24 11:21:05;;;;;;;;;;;16.80;88.40;;;;;;4137212;28;19975;-50
2023/10/24 11:23:46;;;;;;;;;;;16.90;88.30;;;;;;4150630;28;19971;-48
2023/10/24 11:26:28;;;;;;;;;;;16.80;88.20;;;;;;4154427;28;19932;-49
2023/10/24 11:29:10;;;;;;;;;;;16.80;88.30;;;;;;4153522;28;20051;-48
2023/10/24 11:31:51;;;;;;;;;;;16.80;88.50;;;;;;4152550;28;20289;-49
2023/10/24 11:34:32;;;;;;;;;;;16.80;88.70;;;;;;4129368;28;19937;-50
2023/10/24 11:37:13;;;;;;;;;;;16.80;88.80;;;;;;4153660;28;20080;-49
2023/10/24 11:39:54;;;;;;;;;;;16.70;89.00;;;;;;4149989;28;19936;-49
2023/10/24 11:42:36;;;;;;;;;;;16.70;89.40;;;;;;4139052;28;19975;-51
2023/10/24 11:45:17;;;;;;;;;;;16.70;89.60;;;;;;4152795;28;20297;-52
2023/10/24 11:47:58;;;;;;;;;;;16.80;89.60;;;;;;4153493;28;19932;-53
2023/10/24 11:50:45;;;;;;;;;;;16.90;89.50;;;;;;4145771;28;19986;-49
2023/10/24 11:53:26;;;;;;;;;;;16.90;89.20;;;;;;4153820;28;20397;-50
2023/10/24 11:56:08;;;;;;;;;;;16.90;89.00;;;;;;4153706;28;20048;-51
2023/10/24 11:58:50;;;;;;;;;;;16.90;90.00;;;;;;4139439;28;19933;-51
2023/10/24 12:01:32;;;;;;;;;;;17.00;89.40;;;;;;4137551;28;20063;-48
2023/10/24 12:04:13;;;;;;;;;;;17.00;89.10;;;;;;4138030;28;20487;-51
2023/10/24 12:07:01;;;;;;;;;;;17.10;89.30;;;;;;4149264;28;20484;-48
2023/10/24 12:09:42;;;;;;;;;;;17.20;89.00;;;;;;4154184;28;20030;-48
2023/10/24 12:12:23;;;;;;;;;;;17.20;88.80;;;;;;4154711;28;19932;-49
2023/10/24 12:15:06;;;;;;;;;;;17.20;88.70;;;;;;4138345;28;19937;-50
2023/10/24 12:17:47;;;;;;;;;;;17.20;88.80;;;;;;4149156;28;20317;-52
2023/10/24 12:20:28;;;;;;;;;;;17.20;89.00;;;;;;4153516;28;19933;-50
2023/10/24 12:23:08;;;;;;;;;;;17.20;89.00;;;;;;4154129;28;19932;-52
2023/10/24 12:25:50;;;;;;;;;;;17.20;88.90;;;;;;4138441;28;20325;-49
2023/10/24 12:28:32;;;;;;;;;;;17.30;88.80;;;;;;4146227;28;19932;-51
2023/10/24 12:31:14;;;;;;;;;;;17.30;88.70;;;;;;4138981;28;19993;-51
2023/10/24 12:33:55;;;;;;;;;;;17.20;88.70;;;;;;4137243;28;19936;-48
2023/10/24 12:36:36;;;;;;;;;;;17.20;89.00;;;;;;4152124;28;20285;-51
2023/10/24 12:39:17;;;;;;;;;;;17.20;89.20;;;;;;4154307;28;19936;-51
2023/10/24 12:41:58;;;;;;;;;;;17.20;89.10;;;;;;4139235;28;20317;-48
2023/10/24 12:44:39;;;;;;;;;;;17.20;89.20;;;;;;4152481;28;19951;-51
2023/10/24 12:47:21;;;;;;;;;;;17.20;89.30;;;;;;4153538;28;19932;-50
2023/10/24 12:50:01;;;;;;;;;;;17.20;89.30;;;;;;4149052;28;20071;-50
2023/10/24 12:52:43;;;;;;;;;;;17.20;90.00;;;;;;4153778;28;20067;-51
2023/10/24 12:55:25;;;;;;;;;;;17.20;89.20;;;;;;4153737;28;20511;-48
2023/10/24 12:58:05;;;;;;;;;;;17.20;89.20;;;;;;4154170;28;19932;-51
2023/10/24 13:00:46;;;;;;;;;;;17.20;89.80;;;;;;4153431;28;19935;-52
2023/10/24 13:03:29;;;;;;;;;;;17.30;88.50;;;;;;4151182;28;19974;-50
2023/10/24 13:06:10;;;;;;;;;;;17.30;88.10;;;;;;4151042;28;19936;-53
2023/10/24 13:08:51;;;;;;;;;;;17.40;88.10;;;;;;4138592;28;19979;-47
2023/10/24 13:11:32;;;;;;;;;;;17.40;88.00;;;;;;4150527;28;19936;-49
2023/10/24 13:14:12;;;;;;;;;;;17.30;88.00;;;;;;4153571;28;19951;-50
2023/10/24 13:16:56;;;;;;;;;;;17.30;88.00;;;;;;4150036;28;19940;-53
2023/10/24 13:19:50;;;;;;;;;;;17.30;88.20;;;;;;4137387;28;19936;-53
2023/10/24 13:22:31;;;;;;;;;;;17.20;88.30;;;;;;4137912;28;19936;-50
2023/10/24 13:25:12;;;;;;;;;;;17.20;88.40;;;;;;4153500;28;19937;-52
2023/10/24 13:27:53;;;;;;;;;;;17.20;88.30;;;;;;4142529;28;19937;-50
2023/10/24 13:30:34;;;;;;;;;;;17.20;88.10;;;;;;4153663;28;19936;-51
2023/10/24 13:33:24;;;;;;;;;;;17.20;88.10;;;;;;4153512;28;19936;-52
2023/10/24 13:36:06;;;;;;;;;;;17.20;88.20;;;;;;4148756;28;19940;-49
2023/10/24 13:38:53;;;;;;;;;;;17.10;88.20;;;;;;4138983;28;19941;-48
2023/10/24 13:41:33;;;;;;;;;;;17.10;88.40;;;;;;4123184;28;19936;-49
2023/10/24 13:44:15;;;;;;;;;;;17.00;88.40;;;;;;4143598;28;19936;-48
2023/10/24 13:46:57;;;;;;;;;;;17.00;88.60;;;;;;4149963;28;19990;-50
2023/10/24 13:49:38;;;;;;;;;;;16.90;88.70;;;;;;4139695;28;19937;-51
2023/10/24 13:52:20;;;;;;;;;;;16.90;88.90;;;;;;4144444;28;19947;-51
2023/10/24 13:55:00;;;;;;;;;;;16.90;89.10;;;;;;4137864;28;19937;-49
2023/10/24 13:57:43;;;;;;;;;;;16.80;89.10;;;;;;4163990;28;19936;-48
2023/10/24 14:00:24;;;;;;;;;;;16.80;89.30;;;;;;4146438;28;19936;-51
2023/10/24 14:03:05;;;;;;;;;;;16.70;89.50;;;;;;4149943;28;19968;-50
2023/10/24 14:05:48;;;;;;;;;;;16.70;89.70;;;;;;4153760;28;19932;-49
2023/10/24 14:08:30;;;;;;;;;;;16.70;89.90;;;;;;4135191;28;19984;-49
2023/10/24 14:11:11;;;;;;;;;;;16.60;90.00;;;;;;4121262;28;19945;-49
2023/10/24 14:13:52;;;;;;;;;;;16.60;90.10;;;;;;4130714;28;20388;-48
2023/10/24 14:16:33;;;;;;;;;;;16.50;90.10;;;;;;4143173;28;20377;-48
2023/10/24 14:19:14;;;;;;;;;;;16.50;90.20;;;;;;4140848;28;20369;-52
2023/10/24 14:21:57;;;;;;;;;;;16.50;90.20;;;;;;4146526;28;19944;-49
2023/10/24 14:24:39;;;;;;;;;;;16.40;90.30;;;;;;4140719;28;20793;-48
2023/10/24 14:27:20;;;;;;;;;;;16.40;90.40;;;;;;4150842;28;19953;-49
2023/10/24 14:30:00;;;;;;;;;;;16.40;90.40;;;;;;4129766;28;19952;-49
2023/10/24 14:32:42;;;;;;;;;;;16.40;90.50;;;;;;4138938;28;19936;-49
2023/10/24 14:35:23;;;;;;;;;;;16.30;90.50;;;;;;4131973;28;19933;-48
2023/10/24 14:38:05;;;;;;;;;;;16.30;90.60;;;;;;4136353;28;19936;-50
2023/10/24 14:40:47;;;;;;;;;;;16.30;90.60;;;;;;4134897;28;19936;-49
2023/10/24 14:43:28;;;;;;;;;;;16.30;90.70;;;;;;4147193;28;19940;-50
2023/10/24 14:46:09;;;;;;;;;;;16.30;90.70;;;;;;4145609;28;20067;-48
2023/10/24 14:48:49;;;;;;;;;;;16.30;91.20;;;;;;4152114;28;19936;-57
2023/10/24 14:51:30;;;;;;;;;;;16.20;90.80;;;;;;4141955;28;19956;-56
2023/10/24 14:54:11;;;;;;;;;;;16.30;90.90;;;;;;4138187;28;19936;-57
2023/10/24 14:56:53;;;;;;;;;;;16.20;91.00;;;;;;4142123;28;19936;-54
2023/10/24 14:59:34;;;;;;;;;;;16.20;91.10;;;;;;4153777;28;19932;-57
2023/10/24 15:02:15;;;;;;;;;;;16.20;91.20;;;;;;4138057;28;20474;-55
2023/10/24 15:04:55;;;;;;;;;;;16.20;91.20;;;;;;4137570;28;19932;-55
2023/10/24 15:07:36;;;;;;;;;;;16.20;91.70;;;;;;4151551;28;20415;-57
2023/10/24 15:10:17;;;;;;;;;;;16.20;91.40;;;;;;4152643;28;20296;-54
2023/10/24 15:12:59;;;;;;;;;;;16.10;91.40;;;;;;4151695;28;19971;-55
2023/10/24 15:15:40;;;;;;;;;;;16.10;91.40;;;;;;4153903;28;20408;-55
2023/10/24 15:18:20;;;;;;;;;;;16.10;91.50;;;;;;4139704;28;19968;-53
2023/10/24 15:21:01;;;;;;;;;;;16.10;91.40;;;;;;4138657;28;19936;-55
2023/10/24 15:23:41;;;;;;;;;;;16.10;91.50;;;;;;4138580;28;19984;-55
2023/10/24 15:26:22;;;;;;;;;;;16.10;91.50;;;;;;4137647;28;20027;-54
2023/10/24 15:29:05;;;;;;;;;;;16.00;91.50;;;;;;4137665;28;20011;-54
2023/10/24 15:31:46;;;;;;;;;;;16.10;91.50;;;;;;4136462;28;20401;-54
2023/10/24 15:34:27;;;;;;;;;;;16.10;92.00;;;;;;4137431;28;19933;-56
2023/10/24 15:37:08;;;;;;;;;;;16.00;91.80;;;;;;4121517;28;19997;-56
2023/10/24 15:39:50;;;;;;;;;;;16.10;91.90;;;;;;4135694;28;20003;-55